Alexandria, Romania

10:52 AM EEST on July 05, 2015 (GMT +0300)
Rasuceni | | Change Station
CLOSE
Current Station
Personal Weather Station
Location: R%u0103suceni,
Elevation: 217 ft
Nearby Weather Stations

Elev 217 ft 44.10 °N, 25.67 °E | Updated 20 seconds ago

Clear
Clear
77.7 °F
Feels Like 80 °F
N
0.9
Wind Variable Wind from North
Gusts 1.2 mph

Today
High -- | Low -- °F
--% Chance of Precip.
Yesterday
High -- | Low -- °F
Precip. -- in
5:41 AM 9:04 PM
Waning Gibbous, 87% visible
Pressure 30.09 in
Visibility -9999.0 miles
Clouds
Heat Index 80 °F
Dew Point 66 °F
Humidity 66%
Rainfall 0.00 in
Snow Depth Not available.
UV Not available.
Pollen Not available.
Air Quality Not available.
Flu Activity Not available.
METAR LRBS 050730Z 22004KT 160V270 CAVOK 24/17 Q1019 NOSIG

More Conditions Fewer Conditions

Pressure 30.09 in
Visibility -9999.0 miles
Clouds
Heat Index 80 °F
Dew Point 66 °F
Humidity 66%
Rainfall 0.00 in
Snow Depth Not available.
UV Not available.
Pollen Not available.
Air Quality Not available.
Flu Activity Not available.
METAR LRBS 050730Z 22004KT 160V270 CAVOK 24/17 Q1019 NOSIG

More Conditions Fewer Conditions

10-Day Weather Forecast

×

Almanac

Astronomy

Jul. 05, 2015 Rise Set
Actual Time
Civil Twilight
Nautical Twilight
Astronomical Twilight
Moon
Length of Visible Light
Length of Day
Tomorrow will be .
, % of the Moon is Illuminated

Today's Extremes

Country Highs Country Lows

Community

WunderPhotos

Upload Photos

1,835,215 photos uploaded!

WunderBlogs® & News

Nearby

Air Quality

  Air Quality AQ Index Pollutant
Not available.

Snow Depth

Station Depth Elevation

Earthquake Activity

City Distance Mag. Time & Date
Minimum magnitude displayed is 2.5.

Coastal Water Temperatures

Place Temperature

Stations

Nearby Weather Stations

Station Location Temp. Windchill Dew Point Humidity Wind Precip. Elev Updated Type